Time;durP1;ratioP1;P1;durP2;ratioP2;P2;SDS_P1;SDS_P2;PMS_P1;PMS_P2;Temp;Humidity;BMP_temperature;BMP_pressure;BME280_temperature;BME280_humidity;BME280_pressure;Samples;Min_cycle;Max_cycle;Signal;HPM_P1;HPM_P2
2023/09/07 00:01:09;;;;;;;10.23;9.10;;;;;;;18.74;95.77;101828.22;5053162;28;20027;-54
2023/09/07 00:03:34;;;;;;;11.48;8.85;;;;;;;18.76;95.57;101826.22;5046933;28;20299;-53
2023/09/07 00:05:59;;;;;;;11.35;9.00;;;;;;;18.69;95.44;101825.13;5051191;28;20051;-51
2023/09/07 00:08:25;;;;;;;10.70;9.55;;;;;;;18.65;96.29;101821.91;5050841;28;20029;-51
2023/09/07 00:10:51;;;;;;;13.02;9.82;;;;;;;18.63;96.66;101815.78;5052349;28;20035;-52
2023/09/07 00:13:16;;;;;;;11.80;9.88;;;;;;;18.61;96.92;101816.94;5048535;28;20108;-51
2023/09/07 00:15:42;;;;;;;12.80;10.13;;;;;;;18.56;96.97;101817.38;5054385;28;20029;-51
2023/09/07 00:18:08;;;;;;;14.05;10.00;;;;;;;18.53;97.42;101820.34;5045834;28;20099;-52
2023/09/07 00:20:33;;;;;;;11.10;9.35;;;;;;;18.55;96.18;101822.91;5044469;28;20030;-54
2023/09/07 00:23:00;;;;;;;10.30;9.30;;;;;;;18.52;97.13;101824.06;5046332;28;20112;-53
2023/09/07 00:25:26;;;;;;;11.43;9.70;;;;;;;18.53;96.13;101820.34;5052742;28;20021;-51
2023/09/07 00:27:51;;;;;;;13.55;10.70;;;;;;;18.43;97.31;101820.38;5047369;28;20107;-51
2023/09/07 00:30:17;;;;;;;12.77;9.85;;;;;;;18.45;96.58;101818.41;5050831;28;20024;-52
2023/09/07 00:32:42;;;;;;;12.05;10.25;;;;;;;18.46;95.80;101816.56;5051406;28;20074;-52
2023/09/07 00:35:08;;;;;;;12.23;10.43;;;;;;;18.44;96.32;101808.63;5043489;28;20119;-53
2023/09/07 00:37:34;;;;;;;13.63;10.68;;;;;;;18.45;95.36;101804.09;5045792;28;20040;-52
2023/09/07 00:39:59;;;;;;;12.02;10.75;;;;;;;18.41;96.93;101808.09;5044304;28;20040;-53
2023/09/07 00:42:25;;;;;;;16.55;11.27;;;;;;;18.40;96.13;101804.56;5053746;28;20021;-52
2023/09/07 00:44:50;;;;;;;11.70;10.60;;;;;;;18.38;95.77;101801.16;5047245;28;20071;-53
2023/09/07 00:47:16;;;;;;;12.23;10.77;;;;;;;18.30;97.46;101804.56;5047566;28;20550;-52
2023/09/07 00:49:41;;;;;;;12.65;10.55;;;;;;;18.28;97.88;101806.53;5048891;28;20052;-52
2023/09/07 00:52:08;;;;;;;12.15;10.88;;;;;;;18.21;98.72;101812.66;5048927;28;20053;-53
2023/09/07 00:54:34;;;;;;;12.52;11.25;;;;;;;18.19;97.83;101818.19;5049692;28;20419;-52
2023/09/07 00:56:59;;;;;;;18.40;11.05;;;;;;;18.17;98.39;101819.28;5050504;28;20021;-52
2023/09/07 00:59:25;;;;;;;13.73;11.38;;;;;;;18.12;99.04;101809.00;5048416;28;20086;-52
2023/09/07 01:01:50;;;;;;;12.73;11.45;;;;;;;18.07;99.42;101819.34;5051507;28;20052;-54
2023/09/07 01:04:16;;;;;;;13.65;11.32;;;;;;;18.07;99.80;101812.09;5053210;28;20109;-53
2023/09/07 01:06:55;;;;;;;15.18;12.02;;;;;;;18.05;99.39;101819.47;5050421;28;20360;-55
2023/09/07 01:09:26;;;;;;;15.27;12.23;;;;;;;17.94;100.00;101808.88;5041088;28;20030;-54
2023/09/07 01:11:52;;;;;;;13.00;11.70;;;;;;;17.94;100.00;101814.25;5043293;28;20034;-55
2023/09/07 01:14:18;;;;;;;13.35;11.20;;;;;;;17.96;99.32;101817.63;5036317;28;20021;-53
2023/09/07 01:16:44;;;;;;;13.95;11.50;;;;;;;17.95;98.81;101810.53;5038247;28;20037;-53
2023/09/07 01:19:10;;;;;;;16.10;12.00;;;;;;;17.91;99.54;101809.16;5040609;28;20030;-52
2023/09/07 01:21:37;;;;;;;15.57;12.25;;;;;;;17.83;100.00;101815.19;5040749;28;20376;-52
2023/09/07 01:24:10;;;;;;;13.07;11.68;;;;;;;17.82;99.77;101808.13;5045947;28;20490;-52
2023/09/07 01:26:38;;;;;;;14.43;11.07;;;;;;;17.83;99.45;101811.66;5043987;28;20060;-51
2023/09/07 01:29:05;;;;;;;14.43;12.63;;;;;;;17.74;99.87;101808.00;5045457;28;20038;-52
2023/09/07 01:31:30;;;;;;;13.27;11.93;;;;;;;17.75;99.86;101806.97;5040247;28;20425;-52
2023/09/07 01:33:55;;;;;;;14.20;12.30;;;;;;;17.71;99.72;101801.03;5047162;28;20029;-52
2023/09/07 01:36:21;;;;;;;13.88;11.80;;;;;;;17.72;99.37;101802.75;5044951;28;20058;-54
2023/09/07 01:38:46;;;;;;;15.65;12.93;;;;;;;17.67;100.00;101796.09;5049974;28;20060;-52
2023/09/07 01:41:11;;;;;;;13.45;12.10;;;;;;;17.65;100.00;101796.25;5047387;28;20135;-52
2023/09/07 01:43:37;;;;;;;15.73;12.30;;;;;;;17.59;100.00;101786.06;5051754;28;20126;-53
2023/09/07 01:46:02;;;;;;;13.40;12.00;;;;;;;17.55;100.00;101790.00;5049359;28;20036;-52
2023/09/07 01:48:28;;;;;;;13.80;12.40;;;;;;;17.49;100.00;101786.06;5043663;28;20021;-53
2023/09/07 01:50:53;;;;;;;15.63;12.80;;;;;;;17.51;100.00;101788.59;5046324;28;20275;-52
2023/09/07 01:53:19;;;;;;;13.63;12.18;;;;;;;17.48;100.00;101787.03;5049290;28;20025;-52
2023/09/07 01:55:44;;;;;;;14.75;13.07;;;;;;;17.47;100.00;101787.16;5043390;28;20533;-53
2023/09/07 01:58:10;;;;;;;14.98;12.95;;;;;;;17.42;100.00;101789.44;5047121;28;20044;-55
2023/09/07 02:00:41;;;;;;;16.60;12.88;;;;;;;17.38;100.00;101791.53;5043278;28;20028;-54
2023/09/07 02:03:06;;;;;;;14.45;12.93;;;;;;;17.36;100.00;101788.16;5047695;28;20025;-52
2023/09/07 02:05:32;;;;;;;15.65;13.05;;;;;;;17.35;100.00;101794.50;5051100;28;20045;-52
2023/09/07 02:07:58;;;;;;;14.98;12.57;;;;;;;17.30;100.00;101786.00;5035132;28;20109;-55
2023/09/07 02:10:23;;;;;;;13.48;12.18;;;;;;;17.26;100.00;101790.81;5040049;28;20064;-51
2023/09/07 02:12:49;;;;;;;15.30;11.43;;;;;;;17.29;100.00;101781.66;5049895;28;20112;-53
2023/09/07 02:15:14;;;;;;;14.50;12.07;;;;;;;17.26;100.00;101785.44;5046325;28;20480;-52
2023/09/07 02:17:39;;;;;;;15.23;12.43;;;;;;;17.23;100.00;101783.03;5053950;28;20569;-53
2023/09/07 02:20:10;;;;;;;17.15;12.52;;;;;;;17.24;100.00;101783.91;5048013;28;20066;-51
2023/09/07 02:22:36;;;;;;;13.73;12.32;;;;;;;17.18;100.00;101780.75;5043184;28;20033;-52
2023/09/07 02:25:01;;;;;;;14.35;12.77;;;;;;;17.16;100.00;101788.09;5039484;28;20033;-54
2023/09/07 02:27:26;;;;;;;13.75;12.32;;;;;;;17.17;100.00;101794.34;5051849;28;20090;-53
2023/09/07 02:29:51;;;;;;;14.00;12.60;;;;;;;17.10;100.00;101786.00;5054841;28;20029;-53
2023/09/07 02:32:17;;;;;;;16.17;13.05;;;;;;;17.08;100.00;101787.94;5047020;28;20017;-54
2023/09/07 02:34:42;;;;;;;14.48;12.40;;;;;;;17.11;100.00;101784.16;5043990;28;20472;-54
2023/09/07 02:37:08;;;;;;;14.80;13.20;;;;;;;17.06;100.00;101787.25;5046042;28;20379;-53
2023/09/07 02:39:33;;;;;;;13.55;12.15;;;;;;;17.04;100.00;101783.84;5043615;28;20044;-55
2023/09/07 02:41:59;;;;;;;14.00;12.65;;;;;;;17.00;100.00;101788.66;5047019;28;20071;-52
2023/09/07 02:44:24;;;;;;;15.10;13.50;;;;;;;17.00;100.00;101791.34;5041088;28;20140;-53
2023/09/07 02:46:50;;;;;;;16.27;14.35;;;;;;;16.94;100.00;101782.97;5050265;28;20543;-55
2023/09/07 02:49:15;;;;;;;15.82;14.23;;;;;;;16.91;100.00;101783.25;5044707;28;20531;-54
2023/09/07 02:51:40;;;;;;;16.23;13.60;;;;;;;16.93;100.00;101781.28;5047825;28;20375;-52
2023/09/07 02:54:06;;;;;;;17.00;14.00;;;;;;;16.89;100.00;101785.22;5052690;28;20029;-52
2023/09/07 02:56:31;;;;;;;15.07;13.48;;;;;;;16.89;100.00;101785.22;5052419;28;20100;-55
2023/09/07 02:58:56;;;;;;;16.33;13.80;;;;;;;16.85;100.00;101781.09;5045489;28;20491;-54
2023/09/07 03:01:22;;;;;;;16.52;13.50;;;;;;;16.82;100.00;101771.47;5056407;28;20020;-53
2023/09/07 03:03:48;;;;;;;15.80;14.00;;;;;;;16.83;100.00;101771.31;5044717;28;20387;-54
2023/09/07 03:06:16;;;;;;;15.00;13.13;;;;;;;16.79;100.00;101772.56;5058427;28;20036;-52
2023/09/07 03:08:42;;;;;;;16.13;14.43;;;;;;;16.81;100.00;101777.81;5046522;28;20025;-54
2023/09/07 03:11:08;;;;;;;14.20;12.70;;;;;;;16.80;100.00;101781.47;5049787;28;20036;-53
2023/09/07 03:13:33;;;;;;;15.90;14.23;;;;;;;16.79;100.00;101782.47;5048525;28;20025;-53
2023/09/07 03:15:59;;;;;;;18.35;13.63;;;;;;;16.78;100.00;101789.66;5048214;28;20029;-52
2023/09/07 03:18:25;;;;;;;16.77;13.70;;;;;;;16.75;100.00;101786.38;5048923;28;20113;-54
2023/09/07 03:20:51;;;;;;;16.55;14.07;;;;;;;16.77;100.00;101784.41;5046608;28;20071;-53
2023/09/07 03:23:16;;;;;;;14.95;13.15;;;;;;;16.74;100.00;101782.88;5044866;28;20036;-52
2023/09/07 03:25:41;;;;;;;14.52;13.05;;;;;;;16.74;100.00;101776.66;5049981;28;20032;-54
2023/09/07 03:28:07;;;;;;;17.55;13.60;;;;;;;16.73;100.00;101783.00;5050410;28;20033;-53
2023/09/07 03:30:33;;;;;;;16.75;13.63;;;;;;;16.76;100.00;101785.41;5057208;28;20497;-54
2023/09/07 03:32:58;;;;;;;17.05;14.02;;;;;;;16.76;100.00;101788.09;5052171;28;20104;-51
2023/09/07 03:35:23;;;;;;;14.38;12.90;;;;;;;16.74;100.00;101782.03;5049288;28;20546;-52
2023/09/07 03:37:49;;;;;;;13.25;11.95;;;;;;;16.74;100.00;101785.56;5045596;28;20087;-52
2023/09/07 03:40:14;;;;;;;16.48;12.27;;;;;;;16.73;100.00;101791.03;5049814;28;20031;-53
2023/09/07 03:42:40;;;;;;;13.52;12.15;;;;;;;16.71;100.00;101788.50;5044508;28;21067;-52
2023/09/07 03:45:06;;;;;;;14.07;12.45;;;;;;;16.75;100.00;101794.44;5054449;28;20029;-54
2023/09/07 03:47:32;;;;;;;15.95;12.93;;;;;;;16.72;100.00;101795.56;5053231;28;20465;-52
2023/09/07 03:49:58;;;;;;;15.27;12.13;;;;;;;16.74;100.00;101790.91;5049642;28;20033;-54
2023/09/07 03:52:26;;;;;;;16.67;12.20;;;;;;;16.73;100.00;101785.69;5054239;28;20054;-53
2023/09/07 03:54:53;;;;;;;15.23;12.48;;;;;;;16.72;100.00;101792.88;5048770;28;20111;-52
2023/09/07 03:57:19;;;;;;;15.73;12.48;;;;;;;16.72;100.00;101797.38;5049005;28;20033;-54
2023/09/07 03:59:45;;;;;;;13.07;11.43;;;;;;;16.72;100.00;101794.69;5045020;28;20033;-54
2023/09/07 04:02:10;;;;;;;15.77;12.15;;;;;;;16.70;100.00;101797.50;5044031;28;20535;-52
2023/09/07 04:04:35;;;;;;;14.15;12.27;;;;;;;16.70;100.00;101797.50;5047755;28;20061;-54
2023/09/07 04:07:01;;;;;;;13.33;11.23;;;;;;;16.67;100.00;101796.94;5043888;28;20027;-53
2023/09/07 04:09:26;;;;;;;13.25;11.45;;;;;;;16.65;100.00;101795.25;5048981;28;20279;-52
2023/09/07 04:11:51;;;;;;;14.75;12.27;;;;;;;16.62;100.00;101792.84;5042845;28;20037;-54
2023/09/07 04:14:16;;;;;;;13.65;11.40;;;;;;;16.63;100.00;101791.84;5057408;28;20036;-52
2023/09/07 04:16:42;;;;;;;13.18;10.95;;;;;;;16.61;100.00;101785.75;5039176;28;20372;-54
2023/09/07 04:19:07;;;;;;;13.55;11.18;;;;;;;16.56;100.00;101785.31;5047327;28;20040;-52
2023/09/07 04:21:33;;;;;;;12.82;11.13;;;;;;;16.56;100.00;101797.91;5044402;28;20395;-53
2023/09/07 04:23:58;;;;;;;13.13;11.82;;;;;;;16.52;100.00;101793.75;5046957;28;20109;-55
2023/09/07 04:26:23;;;;;;;12.73;11.40;;;;;;;16.49;100.00;101799.38;5048005;28;20040;-52
2023/09/07 04:28:49;;;;;;;14.73;11.82;;;;;;;16.48;100.00;101803.06;5043707;28;20036;-53
2023/09/07 04:31:14;;;;;;;12.45;11.15;;;;;;;16.43;100.00;101798.94;5054045;28;20112;-52
2023/09/07 04:33:39;;;;;;;13.37;11.63;;;;;;;16.40;100.00;101798.34;5053150;28;20067;-51
2023/09/07 04:36:12;;;;;;;11.77;10.57;;;;;;;16.38;100.00;101809.22;5051727;28;20032;-54
2023/09/07 04:38:38;;;;;;;18.20;12.35;;;;;;;16.33;100.00;101805.25;5050414;28;20029;-54
2023/09/07 04:41:11;;;;;;;15.68;11.95;;;;;;;16.35;100.00;101805.94;5054191;28;20120;-54
2023/09/07 04:43:40;;;;;;;13.73;12.15;;;;;;;16.27;100.00;101798.59;5048942;28;20120;-53
2023/09/07 04:46:06;;;;;;;15.98;12.40;;;;;;;16.24;100.00;101807.72;5055785;28;20476;-52
2023/09/07 04:48:32;;;;;;;14.38;12.70;;;;;;;16.21;100.00;101802.63;5047889;28;20453;-52
2023/09/07 04:51:01;;;;;;;14.27;12.60;;;;;;;16.15;100.00;101803.13;5053496;28;20035;-52
2023/09/07 04:53:32;;;;;;;13.73;12.25;;;;;;;16.18;100.00;101794.00;5048533;28;20025;-51
2023/09/07 04:55:58;;;;;;;14.75;11.90;;;;;;;16.16;100.00;101804.84;5047047;28;20025;-52
2023/09/07 04:58:24;;;;;;;14.00;12.00;;;;;;;16.12;100.00;101797.19;5047692;28;20497;-52
2023/09/07 05:00:49;;;;;;;14.30;11.55;;;;;;;16.11;100.00;101800.88;5046263;28;20025;-53
2023/09/07 05:03:15;;;;;;;14.30;11.85;;;;;;;16.11;100.00;101804.38;5050286;28;20077;-52
2023/09/07 05:05:41;;;;;;;13.02;11.50;;;;;;;16.06;100.00;101807.44;5042287;28;20052;-55
2023/09/07 05:08:07;;;;;;;12.73;11.25;;;;;;;16.11;100.00;101809.75;5052306;28;20112;-54
2023/09/07 05:10:36;;;;;;;14.18;10.93;;;;;;;16.07;100.00;101813.66;5044246;28;20128;-53
2023/09/07 05:13:01;;;;;;;13.45;11.32;;;;;;;16.05;100.00;101808.44;5055725;28;20398;-53
2023/09/07 05:15:27;;;;;;;16.05;10.88;;;;;;;16.08;100.00;101818.88;5041707;28;20025;-54
2023/09/07 05:17:53;;;;;;;13.77;12.05;;;;;;;16.04;100.00;101816.63;5055833;28;20040;-52
2023/09/07 05:20:18;;;;;;;16.45;12.77;;;;;;;16.04;100.00;101816.63;5045062;28;20014;-54
2023/09/07 05:22:44;;;;;;;15.02;12.50;;;;;;;16.05;100.00;101821.84;5041849;28;20450;-52
2023/09/07 05:25:09;;;;;;;15.13;12.35;;;;;;;16.06;100.00;101818.16;5055622;28;20036;-54
2023/09/07 05:27:35;;;;;;;15.95;12.27;;;;;;;16.05;100.00;101820.97;5051236;28;20063;-53
2023/09/07 05:30:01;;;;;;;15.95;11.98;;;;;;;16.01;100.00;101820.41;5051078;28;20060;-54
2023/09/07 05:32:26;;;;;;;14.40;12.07;;;;;;;16.00;100.00;101820.53;5046404;28;20055;-54
2023/09/07 05:34:51;;;;;;;12.90;11.23;;;;;;;16.00;100.00;101817.84;5047150;28;20381;-55
2023/09/07 05:37:17;;;;;;;14.07;11.50;;;;;;;16.01;100.00;101823.06;5045981;28;20100;-54
2023/09/07 05:39:42;;;;;;;15.35;12.13;;;;;;;15.98;100.00;101823.31;5052758;28;20032;-54
2023/09/07 05:42:07;;;;;;;15.00;10.68;;;;;;;16.01;100.00;101824.91;5046065;28;20332;-51
2023/09/07 05:44:33;;;;;;;16.15;10.95;;;;;;;16.02;100.00;101824.78;5044407;28;20080;-52
2023/09/07 05:46:58;;;;;;;16.10;12.07;;;;;;;16.04;100.00;101830.00;5049399;28;20383;-52
2023/09/07 05:49:24;;;;;;;14.32;11.15;;;;;;;16.06;100.00;101825.38;5045219;28;20025;-52
2023/09/07 05:51:49;;;;;;;14.77;10.98;;;;;;;16.08;100.00;101826.09;5045230;28;20033;-53
2023/09/07 05:54:14;;;;;;;17.63;11.00;;;;;;;16.11;100.00;101835.72;5053148;28;20033;-53
2023/09/07 05:56:40;;;;;;;15.43;11.55;;;;;;;16.13;100.00;101833.75;5051042;28;20061;-52
2023/09/07 05:59:05;;;;;;;12.77;9.98;;;;;;;16.16;100.00;101839.69;5044308;28;20391;-55
2023/09/07 06:01:31;;;;;;;15.82;11.70;;;;;;;16.21;100.00;101837.47;5050355;28;20063;-53
2023/09/07 06:03:57;;;;;;;13.30;10.70;;;;;;;16.23;100.00;101840.88;5052501;28;20025;-52
2023/09/07 06:06:22;;;;;;;14.23;11.13;;;;;;;16.27;100.00;101846.84;5033735;28;20434;-55
2023/09/07 06:08:48;;;;;;;15.35;11.35;;;;;;;16.32;100.00;101843.75;5040700;28;20090;-54
2023/09/07 06:11:13;;;;;;;14.77;11.25;;;;;;;16.40;100.00;101851.97;5041709;28;20021;-54
2023/09/07 06:13:38;;;;;;;17.48;11.20;;;;;;;16.46;100.00;101849.63;5041835;28;20120;-52
2023/09/07 06:16:03;;;;;;;14.93;11.15;;;;;;;16.48;100.00;101854.03;5044487;28;20033;-55
2023/09/07 06:18:29;;;;;;;13.68;11.45;;;;;;;16.57;100.00;101847.84;5050650;28;20025;-53
2023/09/07 06:20:54;;;;;;;14.32;11.32;;;;;;;16.64;100.00;101854.41;5046525;28;20041;-52
2023/09/07 06:23:19;;;;;;;17.17;10.77;;;;;;;16.67;100.00;101854.16;5053188;28;20498;-53
2023/09/07 06:25:45;;;;;;;15.75;10.95;;;;;;;16.77;100.00;101856.84;5050887;28;20059;-51
2023/09/07 06:28:10;;;;;;;14.07;11.27;;;;;;;16.83;100.00;101850.97;5045446;28;20021;-54
2023/09/07 06:30:35;;;;;;;12.95;11.43;;;;;;;16.88;100.00;101847.91;5045902;28;20035;-52
2023/09/07 06:33:01;;;;;;;14.20;11.13;;;;;;;16.95;100.00;101859.78;5052415;28;20031;-52
2023/09/07 06:35:26;;;;;;;13.23;10.45;;;;;;;16.96;100.00;101848.09;5050106;28;20360;-52
2023/09/07 06:37:51;;;;;;;16.58;11.43;;;;;;;17.08;100.00;101863.09;5043960;28;20571;-52
2023/09/07 06:40:17;;;;;;;13.95;10.60;;;;;;;17.14;100.00;101859.03;5053598;28;20487;-56
2023/09/07 06:42:43;;;;;;;13.25;10.23;;;;;;;17.24;100.00;101859.09;5039381;28;20060;-52
2023/09/07 06:45:09;;;;;;;12.85;10.43;;;;;;;17.31;100.00;101855.69;5049083;28;20024;-52
2023/09/07 06:47:34;;;;;;;13.60;10.48;;;;;;;17.38;100.00;101854.16;5050773;28;20116;-53
2023/09/07 06:50:00;;;;;;;15.98;10.13;;;;;;;17.44;100.00;101855.47;5048716;28;20143;-54
2023/09/07 06:52:25;;;;;;;13.55;10.50;;;;;;;17.53;100.00;101867.19;5050770;28;20020;-54
2023/09/07 06:54:53;;;;;;;14.32;9.88;;;;;;;17.61;100.00;101859.28;5048981;28;20038;-53
2023/09/07 06:57:18;;;;;;;17.48;9.95;;;;;;;17.70;99.94;101861.16;5043338;28;20054;-53
2023/09/07 06:59:44;;;;;;;11.57;9.30;;;;;;;17.79;98.90;101864.00;5048636;28;20036;-51
2023/09/07 07:02:09;;;;;;;14.85;10.10;;;;;;;17.87;98.53;101856.97;5045823;28;20028;-52
2023/09/07 07:04:35;;;;;;;10.77;8.95;;;;;;;18.00;97.79;101863.88;5048616;28;20039;-51
2023/09/07 07:07:03;;;;;;;11.10;9.48;;;;;;;18.11;97.65;101869.97;5041246;28;20049;-50
2023/09/07 07:09:29;;;;;;;13.82;10.15;;;;;;;18.21;96.06;101867.28;5053454;28;20120;-51
2023/09/07 07:11:55;;;;;;;13.38;8.80;;;;;;;18.37;96.91;101874.78;5041266;28;20115;-54
2023/09/07 07:14:20;;;;;;;11.80;9.27;;;;;;;18.53;94.15;101874.16;5045676;28;20389;-51
2023/09/07 07:16:45;;;;;;;10.45;8.52;;;;;;;18.76;93.48;101876.53;5046797;28;20040;-51
2023/09/07 07:19:10;;;;;;;10.85;8.60;;;;;;;18.97;92.27;101873.66;5043263;28;20143;-51
2023/09/07 07:21:36;;;;;;;13.98;8.70;;;;;;;19.19;90.60;101869.75;5044451;28;20113;-53
2023/09/07 07:24:01;;;;;;;11.50;8.18;;;;;;;19.49;90.56;101871.28;5051775;28;20067;-51
2023/09/07 07:26:26;;;;;;;8.55;7.43;;;;;;;19.69;89.53;101872.00;5054869;28;20040;-51
2023/09/07 07:28:52;;;;;;;9.10;7.43;;;;;;;19.95;86.86;101871.25;5053567;28;20029;-53
2023/09/07 07:31:17;;;;;;;11.10;7.03;;;;;;;20.17;86.17;101869.97;5045452;28;20028;-53
2023/09/07 07:33:42;;;;;;;8.63;6.53;;;;;;;20.43;84.29;101869.97;5048583;28;20036;-51
2023/09/07 07:36:08;;;;;;;8.88;6.47;;;;;;;20.63;81.60;101867.97;5044768;28;20415;-51
2023/09/07 07:38:35;;;;;;;10.90;6.05;;;;;;;20.92;80.40;101874.00;5049974;28;20021;-52
2023/09/07 07:41:00;;;;;;;6.80;5.93;;;;;;;21.18;78.71;101858.63;5038705;28;20021;-53
2023/09/07 07:43:26;;;;;;;6.43;5.05;;;;;;;21.41;77.00;101869.66;5021110;28;20052;-54
2023/09/07 07:45:54;;;;;;;8.52;5.53;;;;;;;21.70;77.27;101865.75;5038116;28;20021;-51
2023/09/07 07:48:20;;;;;;;10.18;5.10;;;;;;;21.97;75.80;101871.88;5043499;28;20501;-51
2023/09/07 07:50:45;;;;;;;10.70;5.10;;;;;;;22.15;73.55;101860.88;5045279;28;20028;-51
2023/09/07 07:53:11;;;;;;;9.18;5.13;;;;;;;22.34;72.35;101860.53;5043474;28;20373;-52
2023/09/07 07:55:40;;;;;;;6.82;4.97;;;;;;;22.58;70.57;101860.69;5038716;28;20033;-52
2023/09/07 07:58:07;;;;;;;10.48;5.03;;;;;;;22.84;68.91;101863.16;5043167;28;20037;-51
2023/09/07 08:00:34;;;;;;;10.45;4.90;;;;;;;23.02;68.05;101866.50;5041206;28;20029;-53
2023/09/07 08:03:00;;;;;;;9.80;4.70;;;;;;;23.20;68.51;101854.59;5051645;28;20053;-51
2023/09/07 08:05:25;;;;;;;8.85;4.47;;;;;;;23.50;68.95;101855.63;5034316;28;20053;-50
2023/09/07 08:07:53;;;;;;;6.28;4.63;;;;;;;23.70;67.56;101858.72;5040130;28;20377;-52
2023/09/07 08:10:18;;;;;;;7.53;4.72;;;;;;;23.92;65.47;101853.53;5049104;28;20040;-53
2023/09/07 08:12:44;;;;;;;5.95;4.68;;;;;;;24.04;64.22;101854.78;5043703;28;20033;-51
2023/09/07 08:15:09;;;;;;;5.25;4.50;;;;;;;24.22;63.26;101859.88;5041244;28;20071;-53
2023/09/07 08:17:35;;;;;;;7.15;4.45;;;;;;;24.38;63.14;101848.88;5045850;28;20036;-52
2023/09/07 08:20:00;;;;;;;7.22;4.55;;;;;;;24.61;62.81;101855.28;5045104;28;20041;-51
2023/09/07 08:22:27;;;;;;;7.93;5.05;;;;;;;24.73;61.61;101849.22;5039552;28;20083;-51
2023/09/07 08:24:53;;;;;;;7.25;4.60;;;;;;;25.07;62.39;101838.78;5045098;28;20464;-53
2023/09/07 08:27:20;;;;;;;7.05;4.43;;;;;;;25.16;60.77;101831.38;5046354;28;20029;-52
2023/09/07 08:29:51;;;;;;;6.88;4.57;;;;;;;25.36;60.38;101835.19;5044606;28;20112;-55
2023/09/07 08:32:17;;;;;;;11.05;4.68;;;;;;;25.63;59.91;101828.19;5044405;28;20155;-51
2023/09/07 08:34:42;;;;;;;6.85;4.43;;;;;;;25.82;59.21;101828.56;5053817;28;20021;-51
2023/09/07 08:37:10;;;;;;;20.13;4.32;;;;;;;25.95;57.23;101827.84;5044147;28;20036;-52
2023/09/07 08:39:39;;;;;;;8.27;4.20;;;;;;;26.04;57.59;101829.41;5057130;28;20016;-54
2023/09/07 08:42:04;;;;;;;5.65;4.18;;;;;;;26.19;57.12;101827.44;5044574;28;21278;-51
2023/09/07 08:44:33;;;;;;;7.10;4.22;;;;;;;26.35;56.54;101815.41;5044795;28;20048;-51
2023/09/07 08:47:03;;;;;;;7.60;3.88;;;;;;;26.57;56.30;101816.19;5037402;28;20033;-48
2023/09/07 08:49:29;;;;;;;5.03;3.80;;;;;;;26.72;54.56;101821.53;5038921;28;20027;-49
2023/09/07 08:51:58;;;;;;;8.13;3.70;;;;;;;26.84;54.74;101821.81;5033989;28;20460;-49
2023/09/07 08:54:24;;;;;;;8.48;3.88;;;;;;;26.89;52.78;101821.22;5045265;28;20540;-50
2023/09/07 08:56:50;;;;;;;7.32;4.03;;;;;;;27.11;52.99;101822.78;5043913;28;20036;-50
2023/09/07 08:59:15;;;;;;;5.20;3.58;;;;;;;27.25;52.83;101811.91;5044946;28;20025;-49
2023/09/07 09:01:41;;;;;;;7.35;4.03;;;;;;;27.43;52.18;101814.94;5047523;28;20098;-49
2023/09/07 09:04:07;;;;;;;8.20;3.28;;;;;;;27.77;51.70;101815.00;5041194;28;20383;-48
2023/09/07 09:06:32;;;;;;;5.20;3.33;;;;;;;27.84;51.36;101807.63;5038063;28;20026;-48
2023/09/07 09:08:58;;;;;;;5.20;3.53;;;;;;;28.08;50.55;101808.09;5040663;28;20196;-50
2023/09/07 09:11:24;;;;;;;7.47;3.63;;;;;;;28.07;48.88;101811.88;5042867;28;20092;-49
2023/09/07 09:13:52;;;;;;;5.07;3.30;;;;;;;28.13;49.18;101811.88;5045277;28;20399;-49
2023/09/07 09:16:18;;;;;;;5.43;3.67;;;;;;;28.38;50.19;101814.78;5036208;28;20037;-49
2023/09/07 09:18:52;;;;;;;8.55;3.55;;;;;;;28.51;48.50;101813.94;5039246;28;20029;-49
2023/09/07 09:21:21;;;;;;;5.07;3.50;;;;;;;28.65;48.53;101813.94;5037304;28;20075;-49
2023/09/07 09:23:51;;;;;;;4.72;3.50;;;;;;;28.75;47.73;101812.41;5042944;28;20032;-48
2023/09/07 09:26:17;;;;;;;5.03;3.38;;;;;;;28.89;47.63;101807.72;5039294;28;20467;-49
2023/09/07 09:28:46;;;;;;;5.53;3.65;;;;;;;29.23;47.03;101802.97;5039445;28;20036;-49
2023/09/07 09:31:12;;;;;;;6.55;3.55;;;;;;;29.11;45.93;101807.41;5037535;28;20068;-49
2023/09/07 09:33:42;;;;;;;7.15;3.83;;;;;;;29.17;45.44;101798.38;5045646;28;20436;-49
2023/09/07 09:36:08;;;;;;;7.35;3.60;;;;;;;29.33;45.89;101799.78;5042838;28;20443;-49
2023/09/07 09:38:35;;;;;;;4.35;3.28;;;;;;;29.49;45.68;101785.56;5046705;28;20033;-49
2023/09/07 09:41:03;;;;;;;8.25;3.25;;;;;;;29.72;46.48;101784.13;5039157;28;20029;-49
2023/09/07 09:43:28;;;;;;;5.80;3.40;;;;;;;29.82;45.35;101789.97;5043419;28;20060;-50
2023/09/07 09:45:54;;;;;;;5.75;3.33;;;;;;;29.99;45.09;101797.63;5041667;28;20045;-54
2023/09/07 09:48:20;;;;;;;8.60;3.70;;;;;;;29.98;43.47;101788.56;5048043;28;20031;-51
2023/09/07 09:50:50;;;;;;;8.30;3.90;;;;;;;30.16;43.68;101786.94;5041121;28;20025;-49
2023/09/07 09:53:18;;;;;;;3.35;2.95;;;;;;;30.29;43.27;101791.44;5038009;28;20075;-50
2023/09/07 09:55:46;;;;;;;5.75;3.13;;;;;;;30.39;42.34;101787.16;5039132;28;20333;-52
2023/09/07 09:58:13;;;;;;;6.80;3.25;;;;;;;30.60;42.58;101793.25;5045713;28;20029;-52
2023/09/07 10:00:42;;;;;;;6.80;3.35;;;;;;;30.71;42.06;101787.00;5047116;28;20028;-54
2023/09/07 10:03:11;;;;;;;;;;;;;;;31.01;46.05;101791.72;5044390;28;20052;-54
2023/09/07 10:05:36;;;;;;;6.10;3.10;;;;;;;30.73;41.64;101784.03;5042437;28;20294;-51
2023/09/07 10:08:09;;;;;;;5.13;3.22;;;;;;;31.01;41.06;101785.38;5050819;28;20386;-51
2023/09/07 10:10:36;;;;;;;5.22;3.25;;;;;;;31.04;40.56;101785.75;5040653;28;20064;-51
2023/09/07 10:13:01;;;;;;;4.00;3.17;;;;;;;31.26;39.98;101777.00;5038292;28;20079;-55
2023/09/07 10:15:28;;;;;;;5.22;2.92;;;;;;;31.34;38.78;101776.69;5044085;28;20021;-52
2023/09/07 10:18:13;;;;;;;7.70;2.80;;;;;;;31.50;41.86;101769.69;5040600;28;20052;-52
2023/09/07 10:20:58;;;;;;;4.72;3.10;;;;;;;31.65;41.41;101769.28;5046391;28;20037;-52
2023/09/07 10:23:34;;;;;;;4.05;3.13;;;;;;;31.74;38.73;101776.06;5045944;28;20035;-55
2023/09/07 10:25:59;;;;;;;6.00;2.92;;;;;;;31.88;37.83;101762.97;5045932;28;20040;-52
2023/09/07 10:28:25;;;;;;;4.80;3.23;;;;;;;31.94;37.64;101763.91;5047947;28;20112;-52
2023/09/07 10:31:12;;;;;;;4.80;2.90;;;;;;;32.08;38.79;101763.47;5049095;28;20287;-52
2023/09/07 10:33:38;;;;;;;5.03;2.85;;;;;;;32.27;37.26;101761.41;5043219;28;20383;-54
2023/09/07 10:36:04;;;;;;;6.00;2.40;;;;;;;32.35;37.48;101760.22;5042936;28;20034;-54
2023/09/07 10:38:36;;;;;;;7.07;2.90;;;;;;;32.44;37.81;101767.03;5049093;28;20021;-54
2023/09/07 10:41:04;;;;;;;4.82;2.47;;;;;;;32.37;36.83;101755.31;5042027;28;20120;-53
2023/09/07 10:43:30;;;;;;;4.43;3.03;;;;;;;32.54;36.64;101751.81;5047740;28;20053;-54
2023/09/07 10:45:57;;;;;;;3.30;2.50;;;;;;;32.69;37.48;101749.38;5045616;28;20447;-53
2023/09/07 10:48:29;;;;;;;3.53;2.65;;;;;;;32.97;36.83;101753.25;5045521;28;20455;-52
2023/09/07 10:50:55;;;;;;;5.15;2.60;;;;;;;33.04;36.02;101742.09;5045527;28;20112;-52
2023/09/07 10:53:28;;;;;;;5.85;2.80;;;;;;;33.14;36.73;101740.38;5044885;28;20143;-52
2023/09/07 10:55:57;;;;;;;3.35;3.05;;;;;;;33.11;36.09;101735.34;5033363;28;20029;-53
2023/09/07 10:58:27;;;;;;;6.65;2.80;;;;;;;33.11;36.06;101740.00;5043390;28;20108;-53
2023/09/07 11:00:54;;;;;;;5.00;2.60;;;;;;;33.73;36.31;101736.44;5044310;28;20029;-52
2023/09/07 11:03:19;;;;;;;8.48;3.15;;;;;;;33.79;35.41;101735.47;5040114;28;20418;-51
2023/09/07 11:05:44;;;;;;;10.35;2.97;;;;;;;34.00;34.36;101733.00;5041055;28;20112;-53
2023/09/07 11:08:10;;;;;;;7.90;3.00;;;;;;;33.83;33.88;101742.13;5046298;28;20045;-52